createdAt,value
2018-07-05T00:01:15.443Z,15.80
2018-07-05T00:04:01.607Z,15.80
2018-07-05T00:06:47.964Z,15.90
2018-07-05T00:09:34.322Z,15.80
2018-07-05T00:12:20.631Z,15.80
2018-07-05T00:15:06.900Z,15.80
2018-07-05T00:17:52.966Z,15.80
2018-07-05T00:20:39.139Z,15.70
2018-07-05T00:23:25.451Z,15.70
2018-07-05T00:26:11.650Z,15.70
2018-07-05T00:28:58.068Z,15.70
2018-07-05T00:34:24.268Z,15.70
2018-07-05T00:37:10.598Z,15.70
2018-07-05T00:39:56.966Z,15.60
2018-07-05T00:42:43.172Z,15.70
2018-07-05T00:45:29.287Z,15.60
2018-07-05T00:48:15.453Z,15.60
2018-07-05T00:51:01.723Z,15.60
2018-07-05T00:53:47.941Z,15.60
2018-07-05T00:56:34.242Z,15.60
2018-07-05T00:59:20.163Z,15.60
2018-07-05T01:02:06.430Z,15.60
2018-07-05T01:04:52.513Z,15.60
2018-07-05T01:07:38.620Z,15.50
2018-07-05T01:10:24.677Z,15.50
2018-07-05T01:13:11.067Z,15.40
2018-07-05T01:15:57.246Z,15.40
2018-07-05T01:18:43.596Z,15.40
2018-07-05T01:21:30.007Z,15.30
2018-07-05T01:24:16.242Z,15.40
2018-07-05T01:27:02.528Z,15.30
2018-07-05T01:29:48.514Z,15.30
2018-07-05T01:32:34.701Z,15.30
2018-07-05T01:35:20.898Z,15.30
2018-07-05T01:38:07.038Z,15.30
2018-07-05T01:40:53.100Z,15.30
2018-07-05T01:43:39.241Z,15.30
2018-07-05T01:46:25.457Z,15.30
2018-07-05T01:49:11.766Z,15.30
2018-07-05T01:51:58.009Z,15.30
2018-07-05T01:54:43.979Z,15.30
2018-07-05T01:57:30.471Z,15.20
2018-07-05T02:00:16.734Z,15.20
2018-07-05T02:03:02.870Z,15.20
2018-07-05T02:05:49.197Z,15.20
2018-07-05T02:08:35.738Z,15.20
2018-07-05T02:11:21.817Z,15.20
2018-07-05T02:14:08.022Z,15.10
2018-07-05T02:16:54.240Z,15.10
2018-07-05T02:19:40.332Z,15.10
2018-07-05T02:22:26.449Z,15.00
2018-07-05T02:25:12.612Z,15.00
2018-07-05T02:27:58.773Z,15.00
2018-07-05T02:30:44.977Z,15.00
2018-07-05T02:33:31.170Z,15.00
2018-07-05T02:36:17.523Z,15.00
2018-07-05T02:39:09.216Z,15.00
2018-07-05T02:41:55.501Z,15.00
2018-07-05T02:44:41.788Z,15.00
2018-07-05T02:47:28.200Z,15.00
2018-07-05T02:50:14.827Z,15.00
2018-07-05T02:53:01.010Z,15.00
2018-07-05T02:55:47.046Z,15.00
2018-07-05T02:58:33.255Z,15.10
2018-07-05T03:01:19.250Z,15.00
2018-07-05T03:04:05.389Z,15.00
2018-07-05T03:06:51.700Z,15.10
2018-07-05T03:09:37.686Z,15.00
2018-07-05T03:12:23.878Z,15.10
2018-07-05T03:15:09.846Z,14.90
2018-07-05T03:17:56.251Z,15.00
2018-07-05T03:20:42.261Z,15.10
2018-07-05T03:23:28.674Z,15.20
2018-07-05T03:26:14.845Z,15.20
2018-07-05T03:29:01.072Z,15.30
2018-07-05T03:31:47.411Z,15.30
2018-07-05T03:34:33.712Z,15.30
2018-07-05T03:37:19.841Z,15.30
2018-07-05T03:40:05.939Z,15.30
2018-07-05T03:42:52.222Z,15.40
2018-07-05T03:45:38.277Z,15.60
2018-07-05T03:48:24.732Z,15.60
2018-07-05T03:51:11.211Z,15.60
2018-07-05T03:53:57.518Z,15.70
2018-07-05T03:56:43.884Z,15.80
2018-07-05T03:59:30.359Z,15.80
2018-07-05T04:02:16.844Z,15.90
2018-07-05T04:05:03.037Z,16.00
2018-07-05T04:07:49.194Z,16.10
2018-07-05T04:10:35.682Z,16.20
2018-07-05T04:13:21.946Z,16.40
2018-07-05T04:16:08.139Z,16.60
2018-07-05T04:18:54.475Z,16.70
2018-07-05T04:21:40.782Z,16.70
2018-07-05T04:24:26.940Z,16.80
2018-07-05T04:27:13.174Z,16.80
2018-07-05T04:29:59.319Z,16.90
2018-07-05T04:32:45.443Z,17.00
2018-07-05T04:35:31.551Z,17.10
2018-07-05T04:38:17.848Z,17.20
2018-07-05T04:41:03.939Z,17.20
2018-07-05T04:43:50.211Z,17.30
2018-07-05T04:46:36.451Z,17.30
2018-07-05T04:49:22.799Z,17.40
2018-07-05T04:52:08.984Z,17.50
2018-07-05T04:54:55.123Z,17.50
2018-07-05T04:57:41.506Z,17.70
2018-07-05T05:03:07.758Z,17.80
2018-07-05T05:05:53.965Z,18.00
2018-07-05T05:08:39.983Z,18.00
2018-07-05T05:11:26.032Z,18.00
2018-07-05T05:14:12.232Z,18.10
2018-07-05T05:16:58.240Z,18.20
2018-07-05T05:19:44.494Z,18.10
2018-07-05T05:22:30.676Z,18.10
2018-07-05T05:25:16.843Z,18.30
2018-07-05T05:28:02.936Z,18.30
2018-07-05T05:30:49.088Z,18.30
2018-07-05T05:33:35.114Z,18.30
2018-07-05T05:36:21.240Z,18.30
2018-07-05T05:39:07.573Z,18.20
2018-07-05T05:41:53.718Z,18.10
2018-07-05T05:44:39.766Z,18.30
2018-07-05T05:47:25.902Z,18.20
2018-07-05T05:50:12.328Z,18.30
2018-07-05T05:52:58.564Z,18.40
2018-07-05T05:55:44.726Z,18.30
2018-07-05T05:58:30.997Z,18.30
2018-07-05T06:01:17.296Z,18.40
2018-07-05T06:04:03.279Z,18.40
2018-07-05T06:06:49.738Z,18.60
2018-07-05T06:09:35.748Z,19.00
2018-07-05T06:12:22.093Z,19.80
2018-07-05T06:15:08.192Z,20.40
2018-07-05T06:17:54.280Z,20.70
2018-07-05T06:20:40.369Z,20.80
2018-07-05T06:23:26.792Z,20.60
2018-07-05T06:26:12.935Z,20.30
2018-07-05T06:28:59.205Z,20.00
2018-07-05T06:31:45.432Z,19.70
2018-07-05T06:34:31.531Z,19.70
2018-07-05T06:37:17.747Z,19.90
2018-07-05T06:40:04.130Z,19.80
2018-07-05T06:42:50.231Z,19.80
2018-07-05T06:45:36.494Z,20.00
2018-07-05T06:48:22.604Z,19.90
2018-07-05T06:51:08.928Z,20.10
2018-07-05T06:53:55.237Z,20.10
2018-07-05T06:56:41.396Z,19.70
2018-07-05T06:59:27.471Z,19.50
2018-07-05T07:02:13.787Z,19.50
2018-07-05T07:05:00.115Z,19.60
2018-07-05T07:07:46.357Z,19.70
2018-07-05T07:10:32.919Z,20.00
2018-07-05T07:13:19.152Z,19.80
2018-07-05T07:16:05.423Z,19.80
2018-07-05T07:18:51.664Z,19.60
2018-07-05T07:21:38.280Z,19.70
2018-07-05T07:24:24.456Z,19.80
2018-07-05T07:27:10.713Z,19.90
2018-07-05T07:29:56.787Z,19.70
2018-07-05T07:32:42.990Z,19.90
2018-07-05T07:35:29.114Z,19.80
2018-07-05T07:40:56.002Z,20.10
2018-07-05T07:43:23.729Z,20.10
2018-07-05T07:45:51.364Z,19.70
2018-07-05T07:48:18.975Z,19.60
2018-07-05T07:50:46.587Z,19.50
2018-07-05T07:53:14.245Z,19.60
2018-07-05T07:55:42.052Z,19.60
2018-07-05T07:58:09.901Z,19.60
2018-07-05T08:00:37.520Z,19.40
2018-07-05T08:03:05.241Z,19.40
2018-07-05T08:05:32.846Z,19.60
2018-07-05T08:08:01.462Z,19.50
2018-07-05T08:12:57.547Z,19.40
2018-07-05T08:15:25.192Z,19.50
2018-07-05T08:17:52.817Z,19.60
2018-07-05T08:20:20.453Z,19.70
2018-07-05T08:22:48.139Z,19.70
2018-07-05T08:25:15.745Z,19.60
2018-07-05T08:27:43.580Z,19.50
2018-07-05T08:30:11.212Z,19.40
2018-07-05T08:32:38.856Z,19.50
2018-07-05T08:35:06.487Z,19.50
2018-07-05T08:37:34.252Z,19.60
2018-07-05T08:40:01.927Z,19.70
2018-07-05T08:42:29.658Z,19.60
2018-07-05T08:44:57.391Z,19.60
2018-07-05T08:47:25.108Z,19.50
2018-07-05T08:49:52.858Z,19.50
2018-07-05T08:52:20.699Z,19.50
2018-07-05T08:54:49.022Z,19.40
2018-07-05T08:57:16.804Z,19.30
2018-07-05T08:59:44.430Z,19.40
2018-07-05T09:02:12.057Z,19.50
2018-07-05T09:04:39.739Z,19.60
2018-07-05T09:07:07.404Z,19.70
2018-07-05T09:09:35.042Z,19.70
2018-07-05T09:12:02.714Z,19.80
2018-07-05T09:14:30.455Z,19.60
2018-07-05T09:16:58.353Z,19.70
2018-07-05T09:19:26.079Z,19.60
2018-07-05T09:21:53.853Z,19.50
2018-07-05T09:24:21.698Z,19.50
2018-07-05T09:26:49.398Z,19.40
2018-07-05T09:29:17.016Z,19.40
2018-07-05T09:31:44.646Z,19.40
2018-07-05T09:34:12.363Z,19.50
2018-07-05T09:36:40.002Z,19.70
2018-07-05T09:39:08.283Z,19.80
2018-07-05T09:41:36.644Z,20.00
2018-07-05T09:44:04.755Z,19.90
2018-07-05T09:46:32.367Z,19.80
2018-07-05T09:49:00.185Z,19.60
2018-07-05T09:51:27.882Z,19.60
2018-07-05T09:53:55.531Z,19.50
2018-07-05T09:56:24.925Z,19.50
2018-07-05T09:58:52.653Z,19.60
2018-07-05T10:01:20.292Z,19.60
2018-07-05T10:03:48.166Z,19.80
2018-07-05T10:06:15.700Z,19.80
2018-07-05T10:08:43.296Z,19.80
2018-07-05T10:11:10.989Z,19.60
2018-07-05T10:13:38.927Z,19.50
2018-07-05T10:16:06.301Z,19.40
2018-07-05T10:18:34.009Z,19.50
2018-07-05T10:21:01.903Z,19.60
2018-07-05T10:23:30.143Z,19.60
2018-07-05T10:25:57.760Z,19.70
2018-07-05T10:28:25.532Z,19.80
2018-07-05T10:31:11.641Z,19.80
2018-07-05T10:33:47.437Z,19.90
2018-07-05T10:36:15.165Z,19.90
2018-07-05T10:38:42.806Z,20.10
2018-07-05T10:41:28.932Z,20.20
2018-07-05T10:44:16.228Z,20.30
2018-07-05T10:47:02.459Z,20.30
2018-07-05T10:49:48.389Z,20.40
2018-07-05T10:52:34.534Z,20.50
2018-07-05T10:55:20.866Z,20.60
2018-07-05T10:58:07.047Z,20.60
2018-07-05T11:00:53.105Z,20.80
2018-07-05T11:03:39.220Z,20.90
2018-07-05T11:06:25.677Z,20.90
2018-07-05T11:09:11.792Z,21.00
2018-07-05T11:11:57.895Z,20.80
2018-07-05T11:14:44.241Z,20.80
2018-07-05T11:17:30.579Z,20.80
2018-07-05T11:20:17.065Z,20.60
2018-07-05T11:23:03.416Z,20.70
2018-07-05T11:25:49.765Z,20.80
2018-07-05T11:28:35.849Z,20.90
2018-07-05T11:31:22.011Z,20.80
2018-07-05T11:34:08.109Z,20.60
2018-07-05T11:36:54.281Z,20.60
2018-07-05T11:39:40.381Z,20.50
2018-07-05T11:42:26.638Z,20.40
2018-07-05T11:45:13.040Z,20.20
2018-07-05T11:47:59.073Z,20.30
2018-07-05T11:50:45.236Z,20.50
2018-07-05T11:53:31.220Z,20.60
2018-07-05T11:56:17.450Z,20.80
2018-07-05T11:59:03.462Z,20.50
2018-07-05T12:01:51.700Z,20.40
2018-07-05T12:04:37.968Z,20.50
2018-07-05T12:07:24.110Z,20.50
2018-07-05T12:12:50.632Z,20.30
2018-07-05T12:15:36.733Z,20.20
2018-07-05T12:18:22.833Z,20.40
2018-07-05T12:21:09.127Z,20.40
2018-07-05T12:23:55.328Z,20.40
2018-07-05T12:26:41.341Z,20.50
2018-07-05T12:29:27.413Z,20.60
2018-07-05T12:32:13.497Z,20.70
2018-07-05T12:34:59.601Z,20.80
2018-07-05T12:37:45.753Z,20.70
2018-07-05T12:40:31.994Z,20.70
2018-07-05T12:43:18.033Z,20.50
2018-07-05T12:46:04.078Z,20.40
2018-07-05T12:48:50.270Z,20.10
2018-07-05T12:51:36.391Z,20.10
2018-07-05T12:54:22.491Z,20.00
2018-07-05T12:57:08.748Z,19.70
2018-07-05T12:59:54.704Z,19.60
2018-07-05T13:02:40.951Z,19.60
2018-07-05T13:05:27.258Z,19.70
2018-07-05T13:08:13.594Z,19.80
2018-07-05T13:10:59.912Z,20.30
2018-07-05T13:13:46.104Z,20.30
2018-07-05T13:16:32.185Z,20.20
2018-07-05T13:19:18.350Z,20.20
2018-07-05T13:22:04.349Z,20.00
2018-07-05T13:24:50.501Z,19.80
2018-07-05T13:27:36.584Z,19.80
2018-07-05T13:30:22.748Z,19.70
2018-07-05T13:33:09.287Z,19.70
2018-07-05T13:35:55.552Z,19.60
2018-07-05T13:38:41.758Z,19.50
2018-07-05T13:41:28.852Z,19.50
2018-07-05T13:44:15.188Z,19.50
2018-07-05T13:47:01.595Z,19.60
2018-07-05T13:49:47.788Z,19.60
2018-07-05T13:52:34.144Z,19.60
2018-07-05T13:55:20.327Z,19.60
2018-07-05T13:58:06.823Z,19.70
2018-07-05T14:00:52.965Z,19.80
2018-07-05T14:03:39.350Z,19.40
2018-07-05T14:06:25.463Z,19.40
2018-07-05T14:09:12.054Z,19.30
2018-07-05T14:11:58.173Z,19.30
2018-07-05T14:14:44.701Z,19.20
2018-07-05T14:17:30.909Z,19.40
2018-07-05T14:20:17.163Z,19.60
2018-07-05T14:23:03.462Z,19.50
2018-07-05T14:25:49.669Z,19.60
2018-07-05T14:28:40.100Z,19.60
2018-07-05T14:31:26.308Z,19.80
2018-07-05T14:34:12.542Z,19.90
2018-07-05T14:36:58.766Z,20.10
2018-07-05T14:39:45.159Z,20.20
2018-07-05T14:42:31.209Z,20.30
2018-07-05T14:45:17.410Z,20.30
2018-07-05T14:48:03.641Z,20.20
2018-07-05T14:50:49.853Z,20.10
2018-07-05T14:56:16.335Z,19.90
2018-07-05T14:59:02.557Z,19.80
2018-07-05T15:01:49.095Z,19.60
2018-07-05T15:04:43.479Z,19.80
2018-07-05T15:07:29.507Z,19.90
2018-07-05T15:10:15.823Z,20.20
2018-07-05T15:13:02.131Z,20.30
2018-07-05T15:15:48.551Z,20.20
2018-07-05T15:18:34.897Z,20.10
2018-07-05T15:21:21.150Z,20.00
2018-07-05T15:24:07.168Z,19.90
2018-07-05T15:26:53.347Z,19.80
2018-07-05T15:29:40.729Z,19.80
2018-07-05T15:32:28.337Z,19.90
2018-07-05T15:35:14.451Z,20.00
2018-07-05T15:38:00.569Z,20.20
2018-07-05T15:40:46.978Z,20.00
2018-07-05T15:43:33.274Z,20.00
2018-07-05T15:46:19.488Z,19.90
2018-07-05T15:49:05.989Z,19.80
2018-07-05T15:51:52.351Z,19.80
2018-07-05T15:54:38.570Z,19.80
2018-07-05T15:57:24.863Z,19.80
2018-07-05T16:00:11.064Z,20.00
2018-07-05T16:02:57.478Z,19.90
2018-07-05T16:05:43.453Z,19.90
2018-07-05T16:08:29.795Z,20.10
2018-07-05T16:11:15.972Z,20.20
2018-07-05T16:14:03.292Z,20.50
2018-07-05T16:19:29.587Z,20.50
2018-07-05T16:22:15.861Z,20.50
2018-07-05T16:25:02.241Z,20.10
2018-07-05T16:27:48.364Z,20.10
2018-07-05T16:30:34.554Z,19.80
2018-07-05T16:33:20.686Z,19.70
2018-07-05T16:36:07.144Z,19.70
2018-07-05T16:38:53.421Z,19.80
2018-07-05T16:44:20.007Z,19.90
2018-07-05T16:47:06.363Z,20.00
2018-07-05T16:52:32.854Z,20.00
2018-07-05T16:55:19.146Z,20.10
2018-07-05T16:58:05.376Z,19.90
2018-07-05T17:00:51.601Z,19.80
2018-07-05T17:03:38.032Z,19.80
2018-07-05T17:06:24.093Z,19.70
2018-07-05T17:09:10.481Z,19.60
2018-07-05T17:11:57.626Z,19.50
2018-07-05T17:14:43.650Z,19.50
2018-07-05T17:17:29.912Z,19.50
2018-07-05T17:20:16.192Z,19.30
2018-07-05T17:23:02.673Z,19.30
2018-07-05T17:25:48.749Z,19.30
2018-07-05T17:28:34.914Z,19.10
2018-07-05T17:31:21.188Z,19.00
2018-07-05T17:34:07.555Z,18.90
2018-07-05T17:36:53.738Z,18.80
2018-07-05T17:39:40.058Z,18.70
2018-07-05T17:42:26.358Z,18.60
2018-07-05T17:45:12.731Z,18.60
2018-07-05T17:47:58.851Z,18.50
2018-07-05T17:50:44.942Z,18.30
2018-07-05T17:53:31.360Z,18.30
2018-07-05T17:56:17.620Z,18.40
2018-07-05T17:59:03.874Z,18.30
2018-07-05T18:01:50.079Z,18.10
2018-07-05T18:04:36.388Z,18.00
2018-07-05T18:07:22.871Z,17.90
2018-07-05T18:10:09.229Z,17.90
2018-07-05T18:12:55.602Z,18.00
2018-07-05T18:15:41.941Z,17.90
2018-07-05T18:18:28.110Z,17.90
2018-07-05T18:21:14.155Z,17.90
2018-07-05T18:24:01.533Z,18.00
2018-07-05T18:26:48.011Z,18.00
2018-07-05T18:29:34.228Z,17.90
2018-07-05T18:32:20.589Z,17.90
2018-07-05T18:35:06.958Z,17.80
2018-07-05T18:37:53.326Z,17.90
2018-07-05T18:40:39.736Z,17.70
2018-07-05T18:43:25.815Z,17.60
2018-07-05T18:46:11.860Z,17.60
2018-07-05T18:48:58.103Z,17.60
2018-07-05T18:51:44.211Z,17.60
2018-07-05T18:54:30.411Z,17.50
2018-07-05T18:57:16.488Z,17.40
2018-07-05T19:00:02.636Z,17.40
2018-07-05T19:02:48.921Z,17.50
2018-07-05T19:08:15.459Z,17.40
2018-07-05T19:11:01.744Z,17.40
2018-07-05T19:13:48.000Z,17.40
2018-07-05T19:16:34.502Z,17.30
2018-07-05T19:19:20.545Z,17.30
2018-07-05T19:22:06.802Z,17.30
2018-07-05T19:24:53.144Z,17.30
2018-07-05T19:27:39.428Z,17.40
2018-07-05T19:30:25.481Z,17.40
2018-07-05T19:33:11.715Z,17.40
2018-07-05T19:35:57.691Z,17.50
2018-07-05T19:38:44.257Z,17.50
2018-07-05T19:41:30.740Z,17.50
2018-07-05T19:44:16.766Z,17.40
2018-07-05T19:47:03.138Z,17.40
2018-07-05T19:49:49.292Z,17.20
2018-07-05T19:55:20.942Z,17.00
2018-07-05T19:58:07.181Z,17.00
2018-07-05T20:00:53.289Z,17.00
2018-07-05T20:03:39.408Z,17.00
2018-07-05T20:06:26.179Z,17.00
2018-07-05T20:09:13.365Z,16.90
2018-07-05T20:12:07.320Z,16.80
2018-07-05T20:14:54.623Z,16.80
2018-07-05T20:17:41.580Z,16.80
2018-07-05T20:20:32.392Z,16.70
2018-07-05T20:23:20.238Z,16.70
2018-07-05T20:26:08.088Z,16.70
2018-07-05T20:28:54.959Z,16.60
2018-07-05T20:31:43.198Z,16.40
2018-07-05T20:34:30.060Z,16.40
2018-07-05T20:37:16.370Z,16.40
2018-07-05T20:40:02.945Z,16.30
2018-07-05T20:42:49.408Z,16.30
2018-07-05T20:45:35.539Z,16.40
2018-07-05T20:48:21.806Z,16.30
2018-07-05T20:51:08.060Z,16.20
2018-07-05T20:53:54.358Z,16.30
2018-07-05T20:56:40.572Z,16.30
2018-07-05T20:59:26.902Z,16.40
2018-07-05T21:02:14.170Z,16.30
2018-07-05T21:05:00.540Z,16.40
2018-07-05T21:07:46.848Z,16.50
2018-07-05T21:10:32.908Z,16.40
2018-07-05T21:13:19.098Z,16.50
2018-07-05T21:16:05.283Z,16.50
2018-07-05T21:18:51.735Z,16.50
2018-07-05T21:21:38.084Z,16.50
2018-07-05T21:24:24.731Z,16.50
2018-07-05T21:27:11.066Z,16.50
2018-07-05T21:29:57.306Z,16.70
2018-07-05T21:32:43.391Z,16.70
2018-07-05T21:35:29.737Z,16.60
2018-07-05T21:38:15.784Z,16.50
2018-07-05T21:41:01.947Z,16.50
2018-07-05T21:43:48.253Z,16.50
2018-07-05T21:46:34.300Z,16.50
2018-07-05T21:49:20.519Z,16.40
2018-07-05T21:52:06.472Z,16.40
2018-07-05T21:54:53.092Z,16.40
2018-07-05T21:57:39.250Z,16.50
2018-07-05T22:00:25.663Z,16.50
2018-07-05T22:03:11.835Z,16.50
2018-07-05T22:05:58.085Z,16.50
2018-07-05T22:11:24.587Z,16.60
2018-07-05T22:14:11.358Z,16.50
2018-07-05T22:17:03.794Z,16.60
2018-07-05T22:19:56.324Z,16.60
2018-07-05T22:22:48.348Z,16.60
2018-07-05T22:25:40.229Z,16.40
2018-07-05T22:28:32.087Z,16.40
2018-07-05T22:31:23.780Z,16.40
2018-07-05T22:34:09.829Z,16.40
2018-07-05T22:36:56.165Z,16.40
2018-07-05T22:39:42.330Z,16.50
2018-07-05T22:42:28.413Z,16.40
2018-07-05T22:45:14.731Z,16.40
2018-07-05T22:48:01.035Z,16.40
2018-07-05T22:50:47.441Z,16.40
2018-07-05T22:53:33.613Z,16.40
2018-07-05T22:56:20.006Z,16.40
2018-07-05T22:59:06.396Z,16.50
2018-07-05T23:01:52.856Z,16.50
2018-07-05T23:04:39.204Z,16.40
2018-07-05T23:07:25.562Z,16.40
2018-07-05T23:10:11.785Z,16.40
2018-07-05T23:12:57.994Z,16.40
2018-07-05T23:15:44.316Z,16.50
2018-07-05T23:18:30.583Z,16.50
2018-07-05T23:21:16.927Z,16.60
2018-07-05T23:24:02.934Z,16.50
2018-07-05T23:26:49.162Z,16.60
2018-07-05T23:29:35.377Z,16.50
2018-07-05T23:32:21.491Z,16.60
2018-07-05T23:35:07.659Z,16.60
2018-07-05T23:37:53.879Z,16.70
2018-07-05T23:40:40.378Z,16.70
2018-07-05T23:43:26.723Z,16.70
2018-07-05T23:46:12.974Z,16.70
2018-07-05T23:48:59.257Z,16.70
2018-07-05T23:51:45.414Z,16.80
2018-07-05T23:54:31.640Z,16.70
2018-07-05T23:57:17.923Z,16.70
